Terminal Aerodrome Forecast
Issued by NWS

Home | Current Version | Previous Version | Text Only | Print | Product List | Glossary On
Versions: 1 2 3 4 5 6 7 8 9 10 11 12 13 14 15 16
000
FTUS45 KREV 191800 RRA
TAFCXP
TAF
KCXP 191800Z 1918/2018 20009KT P6SM VCSH FEW040 BKN090
     FM192300 22011KT P6SM SCT060 BKN140
     FM200700 17011G20KT P6SM VCSH SCT020 OVC050
     FM201100 19008KT 2SM -SN OVC012=

USA.gov is the U.S. government's official web portal to all federal, state and local government web resources and services.